sensor_id;sensor_type;location;lat;lon;timestamp;P1;P2;P0
70436;PMS5003;57877;39.750;-104.894;2024-02-04T00:00:06;0;0;
70436;PMS5003;57877;39.750;-104.894;2024-02-04T00:02:31;0;0;
70436;PMS5003;57877;39.750;-104.894;2024-02-04T00:04:56;0;0;
70436;PMS5003;57877;39.750;-104.894;2024-02-04T00:07:21;1;0;
70436;PMS5003;57877;39.750;-104.894;2024-02-04T00:09:46;0;0;
70436;PMS5003;57877;39.750;-104.894;2024-02-04T00:12:11;0;0;
70436;PMS5003;57877;39.750;-104.894;2024-02-04T00:14:36;0;0;
70436;PMS5003;57877;39.750;-104.894;2024-02-04T00:17:02;0;0;
70436;PMS5003;57877;39.750;-104.894;2024-02-04T00:19:27;0;0;
70436;PMS5003;57877;39.750;-104.894;2024-02-04T00:21:52;0;0;
70436;PMS5003;57877;39.750;-104.894;2024-02-04T00:24:17;0;0;
70436;PMS5003;57877;39.750;-104.894;2024-02-04T00:26:42;0;0;
70436;PMS5003;57877;39.750;-104.894;2024-02-04T00:29:07;0;0;
70436;PMS5003;57877;39.750;-104.894;2024-02-04T00:31:32;0;0;
70436;PMS5003;57877;39.750;-104.894;2024-02-04T00:33:58;0;0;
70436;PMS5003;57877;39.750;-104.894;2024-02-04T00:36:23;0;0;
70436;PMS5003;57877;39.750;-104.894;2024-02-04T00:38:48;0;0;
70436;PMS5003;57877;39.750;-104.894;2024-02-04T00:41:13;0;0;
70436;PMS5003;57877;39.750;-104.894;2024-02-04T00:43:38;0;0;
70436;PMS5003;57877;39.750;-104.894;2024-02-04T00:46:03;0;0;
70436;PMS5003;57877;39.750;-104.894;2024-02-04T00:48:28;0;0;
70436;PMS5003;57877;39.750;-104.894;2024-02-04T00:50:53;0;0;
70436;PMS5003;57877;39.750;-104.894;2024-02-04T00:53:19;0;0;
70436;PMS5003;57877;39.750;-104.894;2024-02-04T00:55:44;0;0;
70436;PMS5003;57877;39.750;-104.894;2024-02-04T00:58:09;0;0;
70436;PMS5003;57877;39.750;-104.894;2024-02-04T01:00:34;0;0;
70436;PMS5003;57877;39.750;-104.894;2024-02-04T01:02:59;0;0;
70436;PMS5003;57877;39.750;-104.894;2024-02-04T01:05:29;0;0;
70436;PMS5003;57877;39.750;-104.894;2024-02-04T01:07:49;0;0;
70436;PMS5003;57877;39.750;-104.894;2024-02-04T01:10:15;0;0;
70436;PMS5003;57877;39.750;-104.894;2024-02-04T01:12:40;0;0;
70436;PMS5003;57877;39.750;-104.894;2024-02-04T01:15:05;0;0;
70436;PMS5003;57877;39.750;-104.894;2024-02-04T01:17:30;0;0;
70436;PMS5003;57877;39.750;-104.894;2024-02-04T01:19:55;0;0;
70436;PMS5003;57877;39.750;-104.894;2024-02-04T01:22:20;0;0;
70436;PMS5003;57877;39.750;-104.894;2024-02-04T01:24:45;1;1;
70436;PMS5003;57877;39.750;-104.894;2024-02-04T01:27:11;0;0;
70436;PMS5003;57877;39.750;-104.894;2024-02-04T01:29:36;0;0;
70436;PMS5003;57877;39.750;-104.894;2024-02-04T01:32:01;0;0;
70436;PMS5003;57877;39.750;-104.894;2024-02-04T01:34:26;0;0;
70436;PMS5003;57877;39.750;-104.894;2024-02-04T01:36:51;0;0;
70436;PMS5003;57877;39.750;-104.894;2024-02-04T01:39:16;0;0;
70436;PMS5003;57877;39.750;-104.894;2024-02-04T01:41:41;0;0;
70436;PMS5003;57877;39.750;-104.894;2024-02-04T01:44:06;0;0;
70436;PMS5003;57877;39.750;-104.894;2024-02-04T01:46:31;0;0;
70436;PMS5003;57877;39.750;-104.894;2024-02-04T01:48:57;0;0;
70436;PMS5003;57877;39.750;-104.894;2024-02-04T01:51:23;0;0;
70436;PMS5003;57877;39.750;-104.894;2024-02-04T01:53:47;2;2;
70436;PMS5003;57877;39.750;-104.894;2024-02-04T01:56:12;1;1;
70436;PMS5003;57877;39.750;-104.894;2024-02-04T01:58:37;2;1;
70436;PMS5003;57877;39.750;-104.894;2024-02-04T02:01:02;1;1;
70436;PMS5003;57877;39.750;-104.894;2024-02-04T02:03:27;3;3;
70436;PMS5003;57877;39.750;-104.894;2024-02-04T02:05:52;10;8;
70436;PMS5003;57877;39.750;-104.894;2024-02-04T02:08:18;8;7;
70436;PMS5003;57877;39.750;-104.894;2024-02-04T02:10:43;3;2;
70436;PMS5003;57877;39.750;-104.894;2024-02-04T02:13:11;2;2;
70436;PMS5003;57877;39.750;-104.894;2024-02-04T02:15:34;1;1;
70436;PMS5003;57877;39.750;-104.894;2024-02-04T02:17:59;2;2;
70436;PMS5003;57877;39.750;-104.894;2024-02-04T02:20:24;2;2;
70436;PMS5003;57877;39.750;-104.894;2024-02-04T02:22:49;3;3;
70436;PMS5003;57877;39.750;-104.894;2024-02-04T02:25:14;5;5;
70436;PMS5003;57877;39.750;-104.894;2024-02-04T02:30:04;5;5;
70436;PMS5003;57877;39.750;-104.894;2024-02-04T02:32:29;4;4;
70436;PMS5003;57877;39.750;-104.894;2024-02-04T02:34:54;6;6;
70436;PMS5003;57877;39.750;-104.894;2024-02-04T02:37:22;4;4;
70436;PMS5003;57877;39.750;-104.894;2024-02-04T02:39:48;3;3;
70436;PMS5003;57877;39.750;-104.894;2024-02-04T02:42:09;4;4;
70436;PMS5003;57877;39.750;-104.894;2024-02-04T02:44:35;3;3;
70436;PMS5003;57877;39.750;-104.894;2024-02-04T02:47:00;5;5;
70436;PMS5003;57877;39.750;-104.894;2024-02-04T02:49:25;3;3;
70436;PMS5003;57877;39.750;-104.894;2024-02-04T02:51:50;1;1;
70436;PMS5003;57877;39.750;-104.894;2024-02-04T02:54:15;3;3;
70436;PMS5003;57877;39.750;-104.894;2024-02-04T02:56:40;0;0;
70436;PMS5003;57877;39.750;-104.894;2024-02-04T02:59:05;1;1;
70436;PMS5003;57877;39.750;-104.894;2024-02-04T03:01:30;2;2;
70436;PMS5003;57877;39.750;-104.894;2024-02-04T03:03:56;0;0;
70436;PMS5003;57877;39.750;-104.894;2024-02-04T03:06:21;1;1;
70436;PMS5003;57877;39.750;-104.894;2024-02-04T03:08:46;2;1;
70436;PMS5003;57877;39.750;-104.894;2024-02-04T03:11:11;2;2;
70436;PMS5003;57877;39.750;-104.894;2024-02-04T03:13:38;0;0;
70436;PMS5003;57877;39.750;-104.894;2024-02-04T03:16:02;2;1;
70436;PMS5003;57877;39.750;-104.894;2024-02-04T03:18:26;1;1;
70436;PMS5003;57877;39.750;-104.894;2024-02-04T03:20:52;2;1;
70436;PMS5003;57877;39.750;-104.894;2024-02-04T03:23:17;3;3;
70436;PMS5003;57877;39.750;-104.894;2024-02-04T03:25:42;2;2;
70436;PMS5003;57877;39.750;-104.894;2024-02-04T03:28:07;2;2;
70436;PMS5003;57877;39.750;-104.894;2024-02-04T03:30:32;2;2;
70436;PMS5003;57877;39.750;-104.894;2024-02-04T03:32:57;2;2;
70436;PMS5003;57877;39.750;-104.894;2024-02-04T03:35:22;1;1;
70436;PMS5003;57877;39.750;-104.894;2024-02-04T03:37:48;2;2;
70436;PMS5003;57877;39.750;-104.894;2024-02-04T03:40:13;1;1;
70436;PMS5003;57877;39.750;-104.894;2024-02-04T03:42:38;0;0;
70436;PMS5003;57877;39.750;-104.894;2024-02-04T03:45:04;3;3;
70436;PMS5003;57877;39.750;-104.894;2024-02-04T03:47:28;2;2;
70436;PMS5003;57877;39.750;-104.894;2024-02-04T03:49:53;3;3;
70436;PMS5003;57877;39.750;-104.894;2024-02-04T03:52:18;0;0;
70436;PMS5003;57877;39.750;-104.894;2024-02-04T03:54:44;3;3;
70436;PMS5003;57877;39.750;-104.894;2024-02-04T03:57:09;2;2;
70436;PMS5003;57877;39.750;-104.894;2024-02-04T03:59:34;3;3;
70436;PMS5003;57877;39.750;-104.894;2024-02-04T04:01:59;1;1;
70436;PMS5003;57877;39.750;-104.894;2024-02-04T04:04:24;2;2;
70436;PMS5003;57877;39.750;-104.894;2024-02-04T04:06:49;1;1;
70436;PMS5003;57877;39.750;-104.894;2024-02-04T04:09:14;2;2;
70436;PMS5003;57877;39.750;-104.894;2024-02-04T04:11:39;3;3;
70436;PMS5003;57877;39.750;-104.894;2024-02-04T04:14:05;3;3;
70436;PMS5003;57877;39.750;-104.894;2024-02-04T04:16:30;4;4;
70436;PMS5003;57877;39.750;-104.894;2024-02-04T04:18:55;3;3;
70436;PMS5003;57877;39.750;-104.894;2024-02-04T04:21:20;5;4;
70436;PMS5003;57877;39.750;-104.894;2024-02-04T04:23:45;5;4;
70436;PMS5003;57877;39.750;-104.894;2024-02-04T04:26:10;2;2;
70436;PMS5003;57877;39.750;-104.894;2024-02-04T04:28:35;4;3;
70436;PMS5003;57877;39.750;-104.894;2024-02-04T04:31:00;3;3;
70436;PMS5003;57877;39.750;-104.894;2024-02-04T04:33:25;2;2;
70436;PMS5003;57877;39.750;-104.894;2024-02-04T04:35:51;1;1;
70436;PMS5003;57877;39.750;-104.894;2024-02-04T04:38:16;2;2;
70436;PMS5003;57877;39.750;-104.894;2024-02-04T04:40:41;4;3;
70436;PMS5003;57877;39.750;-104.894;2024-02-04T04:43:06;3;3;
70436;PMS5003;57877;39.750;-104.894;2024-02-04T04:45:31;2;2;
70436;PMS5003;57877;39.750;-104.894;2024-02-04T04:47:56;5;4;
70436;PMS5003;57877;39.750;-104.894;2024-02-04T04:50:22;3;3;
70436;PMS5003;57877;39.750;-104.894;2024-02-04T04:52:46;5;5;
70436;PMS5003;57877;39.750;-104.894;2024-02-04T04:55:12;2;2;
70436;PMS5003;57877;39.750;-104.894;2024-02-04T04:57:37;6;5;
70436;PMS5003;57877;39.750;-104.894;2024-02-04T05:00:02;5;5;
70436;PMS5003;57877;39.750;-104.894;2024-02-04T05:02:27;15;14;
70436;PMS5003;57877;39.750;-104.894;2024-02-04T05:04:52;8;8;
70436;PMS5003;57877;39.750;-104.894;2024-02-04T05:07:17;8;8;
70436;PMS5003;57877;39.750;-104.894;2024-02-04T05:09:42;7;7;
70436;PMS5003;57877;39.750;-104.894;2024-02-04T05:12:08;8;8;
70436;PMS5003;57877;39.750;-104.894;2024-02-04T05:14:32;10;10;
70436;PMS5003;57877;39.750;-104.894;2024-02-04T05:16:58;8;8;
70436;PMS5003;57877;39.750;-104.894;2024-02-04T05:19:23;14;14;
70436;PMS5003;57877;39.750;-104.894;2024-02-04T05:21:48;18;18;
70436;PMS5003;57877;39.750;-104.894;2024-02-04T05:24:13;12;11;
70436;PMS5003;57877;39.750;-104.894;2024-02-04T05:26:38;9;9;
70436;PMS5003;57877;39.750;-104.894;2024-02-04T05:29:03;9;9;
70436;PMS5003;57877;39.750;-104.894;2024-02-04T05:31:28;9;9;
70436;PMS5003;57877;39.750;-104.894;2024-02-04T05:33:53;7;7;
70436;PMS5003;57877;39.750;-104.894;2024-02-04T05:36:19;8;8;
70436;PMS5003;57877;39.750;-104.894;2024-02-04T05:38:45;6;6;
70436;PMS5003;57877;39.750;-104.894;2024-02-04T05:41:09;5;5;
70436;PMS5003;57877;39.750;-104.894;2024-02-04T05:43:34;9;9;
70436;PMS5003;57877;39.750;-104.894;2024-02-04T05:45:59;6;6;
70436;PMS5003;57877;39.750;-104.894;2024-02-04T05:48:24;10;10;
70436;PMS5003;57877;39.750;-104.894;2024-02-04T05:50:49;9;9;
70436;PMS5003;57877;39.750;-104.894;2024-02-04T05:53:15;10;10;
70436;PMS5003;57877;39.750;-104.894;2024-02-04T05:55:40;8;8;
70436;PMS5003;57877;39.750;-104.894;2024-02-04T05:58:05;7;7;
70436;PMS5003;57877;39.750;-104.894;2024-02-04T06:00:30;6;6;
70436;PMS5003;57877;39.750;-104.894;2024-02-04T06:02:55;9;8;
70436;PMS5003;57877;39.750;-104.894;2024-02-04T06:05:20;8;8;
70436;PMS5003;57877;39.750;-104.894;2024-02-04T06:07:45;7;7;
70436;PMS5003;57877;39.750;-104.894;2024-02-04T06:10:11;9;9;
70436;PMS5003;57877;39.750;-104.894;2024-02-04T06:12:35;8;8;
70436;PMS5003;57877;39.750;-104.894;2024-02-04T06:15:01;7;7;
70436;PMS5003;57877;39.750;-104.894;2024-02-04T06:17:26;11;11;
70436;PMS5003;57877;39.750;-104.894;2024-02-04T06:19:51;19;16;
70436;PMS5003;57877;39.750;-104.894;2024-02-04T06:22:16;15;14;
70436;PMS5003;57877;39.750;-104.894;2024-02-04T06:24:41;16;16;
70436;PMS5003;57877;39.750;-104.894;2024-02-04T06:27:07;15;13;
70436;PMS5003;57877;39.750;-104.894;2024-02-04T06:29:31;11;11;
70436;PMS5003;57877;39.750;-104.894;2024-02-04T06:31:56;18;15;
70436;PMS5003;57877;39.750;-104.894;2024-02-04T06:34:22;11;10;
70436;PMS5003;57877;39.750;-104.894;2024-02-04T06:36:47;14;13;
70436;PMS5003;57877;39.750;-104.894;2024-02-04T06:39:12;17;16;
70436;PMS5003;57877;39.750;-104.894;2024-02-04T06:41:37;17;16;
70436;PMS5003;57877;39.750;-104.894;2024-02-04T06:44:02;20;18;
70436;PMS5003;57877;39.750;-104.894;2024-02-04T06:46:27;23;21;
70436;PMS5003;57877;39.750;-104.894;2024-02-04T06:48:52;20;19;
70436;PMS5003;57877;39.750;-104.894;2024-02-04T06:51:17;16;15;
70436;PMS5003;57877;39.750;-104.894;2024-02-04T06:53:42;17;15;
70436;PMS5003;57877;39.750;-104.894;2024-02-04T06:56:08;11;10;
70436;PMS5003;57877;39.750;-104.894;2024-02-04T06:58:33;13;12;
70436;PMS5003;57877;39.750;-104.894;2024-02-04T07:00:58;13;13;
70436;PMS5003;57877;39.750;-104.894;2024-02-04T07:03:23;12;10;
70436;PMS5003;57877;39.750;-104.894;2024-02-04T07:05:48;11;10;
70436;PMS5003;57877;39.750;-104.894;2024-02-04T07:08:13;17;16;
70436;PMS5003;57877;39.750;-104.894;2024-02-04T07:10:38;18;15;
70436;PMS5003;57877;39.750;-104.894;2024-02-04T07:13:03;17;16;
70436;PMS5003;57877;39.750;-104.894;2024-02-04T07:15:29;18;14;
70436;PMS5003;57877;39.750;-104.894;2024-02-04T07:17:54;11;10;
70436;PMS5003;57877;39.750;-104.894;2024-02-04T07:20:19;13;12;
70436;PMS5003;57877;39.750;-104.894;2024-02-04T07:22:44;10;10;
70436;PMS5003;57877;39.750;-104.894;2024-02-04T07:25:09;10;8;
70436;PMS5003;57877;39.750;-104.894;2024-02-04T07:27:34;12;11;
70436;PMS5003;57877;39.750;-104.894;2024-02-04T07:29:59;12;11;
70436;PMS5003;57877;39.750;-104.894;2024-02-04T07:32:24;12;12;
70436;PMS5003;57877;39.750;-104.894;2024-02-04T07:34:50;13;10;
70436;PMS5003;57877;39.750;-104.894;2024-02-04T07:37:15;11;11;
70436;PMS5003;57877;39.750;-104.894;2024-02-04T07:39:40;16;14;
70436;PMS5003;57877;39.750;-104.894;2024-02-04T07:42:05;14;14;
70436;PMS5003;57877;39.750;-104.894;2024-02-04T07:44:30;10;9;
70436;PMS5003;57877;39.750;-104.894;2024-02-04T07:46:55;17;16;
70436;PMS5003;57877;39.750;-104.894;2024-02-04T07:49:21;17;16;
70436;PMS5003;57877;39.750;-104.894;2024-02-04T07:51:46;14;14;
70436;PMS5003;57877;39.750;-104.894;2024-02-04T07:54:11;11;9;
70436;PMS5003;57877;39.750;-104.894;2024-02-04T07:56:36;11;9;
70436;PMS5003;57877;39.750;-104.894;2024-02-04T07:59:01;14;13;
70436;PMS5003;57877;39.750;-104.894;2024-02-04T08:01:26;13;13;
70436;PMS5003;57877;39.750;-104.894;2024-02-04T08:03:51;16;15;
70436;PMS5003;57877;39.750;-104.894;2024-02-04T08:06:17;14;13;
70436;PMS5003;57877;39.750;-104.894;2024-02-04T08:08:42;18;18;
70436;PMS5003;57877;39.750;-104.894;2024-02-04T08:11:07;14;12;
70436;PMS5003;57877;39.750;-104.894;2024-02-04T08:13:32;16;15;
70436;PMS5003;57877;39.750;-104.894;2024-02-04T08:15:57;17;14;
70436;PMS5003;57877;39.750;-104.894;2024-02-04T08:18:22;15;14;
70436;PMS5003;57877;39.750;-104.894;2024-02-04T08:20:47;16;14;
70436;PMS5003;57877;39.750;-104.894;2024-02-04T08:23:12;14;14;
70436;PMS5003;57877;39.750;-104.894;2024-02-04T08:25:38;18;18;
70436;PMS5003;57877;39.750;-104.894;2024-02-04T08:28:03;15;15;
70436;PMS5003;57877;39.750;-104.894;2024-02-04T08:30:28;16;15;
70436;PMS5003;57877;39.750;-104.894;2024-02-04T08:32:53;19;18;
70436;PMS5003;57877;39.750;-104.894;2024-02-04T08:35:18;14;14;
70436;PMS5003;57877;39.750;-104.894;2024-02-04T08:37:43;17;15;
70436;PMS5003;57877;39.750;-104.894;2024-02-04T08:40:09;17;15;
70436;PMS5003;57877;39.750;-104.894;2024-02-04T08:42:34;11;11;
70436;PMS5003;57877;39.750;-104.894;2024-02-04T08:44:59;15;14;
70436;PMS5003;57877;39.750;-104.894;2024-02-04T08:47:24;16;15;
70436;PMS5003;57877;39.750;-104.894;2024-02-04T08:49:49;17;14;
70436;PMS5003;57877;39.750;-104.894;2024-02-04T08:52:14;15;13;
70436;PMS5003;57877;39.750;-104.894;2024-02-04T08:54:39;17;16;
70436;PMS5003;57877;39.750;-104.894;2024-02-04T08:57:04;17;15;
70436;PMS5003;57877;39.750;-104.894;2024-02-04T08:59:29;13;13;
70436;PMS5003;57877;39.750;-104.894;2024-02-04T09:01:55;14;14;
70436;PMS5003;57877;39.750;-104.894;2024-02-04T09:04:20;13;12;
70436;PMS5003;57877;39.750;-104.894;2024-02-04T09:06:45;14;13;
70436;PMS5003;57877;39.750;-104.894;2024-02-04T09:09:10;16;15;
70436;PMS5003;57877;39.750;-104.894;2024-02-04T09:11:35;15;14;
70436;PMS5003;57877;39.750;-104.894;2024-02-04T09:14:00;12;12;
70436;PMS5003;57877;39.750;-104.894;2024-02-04T09:16:26;13;10;
70436;PMS5003;57877;39.750;-104.894;2024-02-04T09:18:51;16;15;
70436;PMS5003;57877;39.750;-104.894;2024-02-04T09:21:16;10;10;
70436;PMS5003;57877;39.750;-104.894;2024-02-04T09:23:41;11;11;
70436;PMS5003;57877;39.750;-104.894;2024-02-04T09:26:06;13;11;
70436;PMS5003;57877;39.750;-104.894;2024-02-04T09:28:31;15;12;
70436;PMS5003;57877;39.750;-104.894;2024-02-04T09:30:57;14;12;
70436;PMS5003;57877;39.750;-104.894;2024-02-04T09:33:22;11;11;
70436;PMS5003;57877;39.750;-104.894;2024-02-04T09:35:47;14;12;
70436;PMS5003;57877;39.750;-104.894;2024-02-04T09:38:12;13;12;
70436;PMS5003;57877;39.750;-104.894;2024-02-04T09:40:37;15;13;
70436;PMS5003;57877;39.750;-104.894;2024-02-04T09:43:02;16;14;
70436;PMS5003;57877;39.750;-104.894;2024-02-04T09:45:27;16;16;
70436;PMS5003;57877;39.750;-104.894;2024-02-04T09:47:52;14;12;
70436;PMS5003;57877;39.750;-104.894;2024-02-04T09:50:17;15;15;
70436;PMS5003;57877;39.750;-104.894;2024-02-04T09:52:43;10;10;
70436;PMS5003;57877;39.750;-104.894;2024-02-04T09:55:08;12;11;
70436;PMS5003;57877;39.750;-104.894;2024-02-04T09:57:33;11;9;
70436;PMS5003;57877;39.750;-104.894;2024-02-04T09:59:58;11;11;
70436;PMS5003;57877;39.750;-104.894;2024-02-04T10:02:23;14;13;
70436;PMS5003;57877;39.750;-104.894;2024-02-04T10:04:48;10;10;
70436;PMS5003;57877;39.750;-104.894;2024-02-04T10:07:13;13;12;
70436;PMS5003;57877;39.750;-104.894;2024-02-04T10:09:38;16;16;
70436;PMS5003;57877;39.750;-104.894;2024-02-04T10:12:04;17;14;
70436;PMS5003;57877;39.750;-104.894;2024-02-04T10:14:29;14;13;
70436;PMS5003;57877;39.750;-104.894;2024-02-04T10:16:54;13;11;
70436;PMS5003;57877;39.750;-104.894;2024-02-04T10:19:19;13;8;
70436;PMS5003;57877;39.750;-104.894;2024-02-04T10:21:44;12;11;
70436;PMS5003;57877;39.750;-104.894;2024-02-04T10:24:09;11;9;
70436;PMS5003;57877;39.750;-104.894;2024-02-04T10:26:34;13;11;
70436;PMS5003;57877;39.750;-104.894;2024-02-04T10:29:00;9;9;
70436;PMS5003;57877;39.750;-104.894;2024-02-04T10:31:25;9;8;
70436;PMS5003;57877;39.750;-104.894;2024-02-04T10:33:50;7;7;
70436;PMS5003;57877;39.750;-104.894;2024-02-04T10:36:15;8;8;
70436;PMS5003;57877;39.750;-104.894;2024-02-04T10:38:40;9;9;
70436;PMS5003;57877;39.750;-104.894;2024-02-04T10:41:05;6;6;
70436;PMS5003;57877;39.750;-104.894;2024-02-04T10:43:31;6;6;
70436;PMS5003;57877;39.750;-104.894;2024-02-04T10:45:56;3;3;
70436;PMS5003;57877;39.750;-104.894;2024-02-04T10:48:21;5;5;
70436;PMS5003;57877;39.750;-104.894;2024-02-04T10:50:46;4;4;
70436;PMS5003;57877;39.750;-104.894;2024-02-04T10:53:11;4;4;
70436;PMS5003;57877;39.750;-104.894;2024-02-04T10:55:38;4;4;
70436;PMS5003;57877;39.750;-104.894;2024-02-04T10:58:02;4;4;
70436;PMS5003;57877;39.750;-104.894;2024-02-04T11:00:27;4;4;
70436;PMS5003;57877;39.750;-104.894;2024-02-04T11:02:52;3;3;
70436;PMS5003;57877;39.750;-104.894;2024-02-04T11:05:17;1;1;
70436;PMS5003;57877;39.750;-104.894;2024-02-04T11:07:43;3;2;
70436;PMS5003;57877;39.750;-104.894;2024-02-04T11:10:08;3;3;
70436;PMS5003;57877;39.750;-104.894;2024-02-04T11:12:33;5;5;
70436;PMS5003;57877;39.750;-104.894;2024-02-04T11:14:59;5;4;
70436;PMS5003;57877;39.750;-104.894;2024-02-04T11:17:30;3;3;
70436;PMS5003;57877;39.750;-104.894;2024-02-04T11:19:53;3;3;
70436;PMS5003;57877;39.750;-104.894;2024-02-04T11:22:20;4;4;
70436;PMS5003;57877;39.750;-104.894;2024-02-04T11:24:44;2;1;
70436;PMS5003;57877;39.750;-104.894;2024-02-04T11:27:04;3;3;
70436;PMS5003;57877;39.750;-104.894;2024-02-04T11:29:29;2;2;
70436;PMS5003;57877;39.750;-104.894;2024-02-04T11:31:54;1;0;
70436;PMS5003;57877;39.750;-104.894;2024-02-04T11:34:19;2;1;
70436;PMS5003;57877;39.750;-104.894;2024-02-04T11:36:44;1;1;
70436;PMS5003;57877;39.750;-104.894;2024-02-04T11:39:13;1;1;
70436;PMS5003;57877;39.750;-104.894;2024-02-04T11:41:35;1;0;
70436;PMS5003;57877;39.750;-104.894;2024-02-04T11:44:00;2;2;
70436;PMS5003;57877;39.750;-104.894;2024-02-04T11:46:27;2;2;
70436;PMS5003;57877;39.750;-104.894;2024-02-04T11:48:51;1;1;
70436;PMS5003;57877;39.750;-104.894;2024-02-04T11:51:15;1;1;
70436;PMS5003;57877;39.750;-104.894;2024-02-04T11:53:40;1;1;
70436;PMS5003;57877;39.750;-104.894;2024-02-04T11:56:06;3;3;
70436;PMS5003;57877;39.750;-104.894;2024-02-04T11:58:31;3;3;
70436;PMS5003;57877;39.750;-104.894;2024-02-04T12:00:56;3;3;
70436;PMS5003;57877;39.750;-104.894;2024-02-04T12:05:46;2;2;
70436;PMS5003;57877;39.750;-104.894;2024-02-04T12:08:12;1;1;
70436;PMS5003;57877;39.750;-104.894;2024-02-04T12:10:37;3;3;
70436;PMS5003;57877;39.750;-104.894;2024-02-04T12:13:02;2;2;
70436;PMS5003;57877;39.750;-104.894;2024-02-04T12:15:27;0;0;
70436;PMS5003;57877;39.750;-104.894;2024-02-04T12:17:52;2;2;
70436;PMS5003;57877;39.750;-104.894;2024-02-04T12:20:17;2;2;
70436;PMS5003;57877;39.750;-104.894;2024-02-04T12:22:42;2;2;
70436;PMS5003;57877;39.750;-104.894;2024-02-04T12:25:08;2;2;
70436;PMS5003;57877;39.750;-104.894;2024-02-04T12:27:33;3;3;
70436;PMS5003;57877;39.750;-104.894;2024-02-04T12:29:58;0;0;
70436;PMS5003;57877;39.750;-104.894;2024-02-04T12:32:23;5;5;
70436;PMS5003;57877;39.750;-104.894;2024-02-04T12:34:48;3;3;
70436;PMS5003;57877;39.750;-104.894;2024-02-04T12:37:13;4;4;
70436;PMS5003;57877;39.750;-104.894;2024-02-04T12:39:38;5;4;
70436;PMS5003;57877;39.750;-104.894;2024-02-04T12:42:04;5;4;
70436;PMS5003;57877;39.750;-104.894;2024-02-04T12:44:29;4;4;
70436;PMS5003;57877;39.750;-104.894;2024-02-04T12:46:54;5;5;
70436;PMS5003;57877;39.750;-104.894;2024-02-04T12:49:19;5;4;
70436;PMS5003;57877;39.750;-104.894;2024-02-04T12:51:44;3;3;
70436;PMS5003;57877;39.750;-104.894;2024-02-04T12:54:10;1;1;
70436;PMS5003;57877;39.750;-104.894;2024-02-04T12:59:00;1;1;
70436;PMS5003;57877;39.750;-104.894;2024-02-04T13:01:25;4;3;
70436;PMS5003;57877;39.750;-104.894;2024-02-04T13:03:50;0;0;
70436;PMS5003;57877;39.750;-104.894;2024-02-04T13:06:15;3;3;
70436;PMS5003;57877;39.750;-104.894;2024-02-04T13:08:40;2;2;
70436;PMS5003;57877;39.750;-104.894;2024-02-04T13:11:05;2;2;
70436;PMS5003;57877;39.750;-104.894;2024-02-04T13:13:31;2;2;
70436;PMS5003;57877;39.750;-104.894;2024-02-04T13:15:56;1;1;
70436;PMS5003;57877;39.750;-104.894;2024-02-04T13:18:21;1;1;
70436;PMS5003;57877;39.750;-104.894;2024-02-04T13:20:46;2;2;
70436;PMS5003;57877;39.750;-104.894;2024-02-04T13:23:11;2;1;
70436;PMS5003;57877;39.750;-104.894;2024-02-04T13:25:36;0;0;
70436;PMS5003;57877;39.750;-104.894;2024-02-04T13:28:02;1;1;
70436;PMS5003;57877;39.750;-104.894;2024-02-04T13:30:27;3;2;
70436;PMS5003;57877;39.750;-104.894;2024-02-04T13:32:52;3;3;
70436;PMS5003;57877;39.750;-104.894;2024-02-04T13:35:17;3;2;
70436;PMS5003;57877;39.750;-104.894;2024-02-04T13:37:43;2;2;
70436;PMS5003;57877;39.750;-104.894;2024-02-04T13:40:07;1;1;
70436;PMS5003;57877;39.750;-104.894;2024-02-04T13:42:32;1;1;
70436;PMS5003;57877;39.750;-104.894;2024-02-04T13:44:58;1;1;
70436;PMS5003;57877;39.750;-104.894;2024-02-04T13:47:22;1;1;
70436;PMS5003;57877;39.750;-104.894;2024-02-04T13:49:48;1;1;
70436;PMS5003;57877;39.750;-104.894;2024-02-04T13:52:13;2;2;
70436;PMS5003;57877;39.750;-104.894;2024-02-04T13:54:38;2;2;
70436;PMS5003;57877;39.750;-104.894;2024-02-04T13:57:03;1;1;
70436;PMS5003;57877;39.750;-104.894;2024-02-04T13:59:28;0;0;
70436;PMS5003;57877;39.750;-104.894;2024-02-04T14:01:53;1;1;
70436;PMS5003;57877;39.750;-104.894;2024-02-04T14:04:18;0;0;
70436;PMS5003;57877;39.750;-104.894;2024-02-04T14:06:44;1;1;
70436;PMS5003;57877;39.750;-104.894;2024-02-04T14:09:09;5;4;
70436;PMS5003;57877;39.750;-104.894;2024-02-04T14:11:34;7;6;
70436;PMS5003;57877;39.750;-104.894;2024-02-04T14:13:59;7;7;
70436;PMS5003;57877;39.750;-104.894;2024-02-04T14:16:24;7;7;
70436;PMS5003;57877;39.750;-104.894;2024-02-04T14:18:49;6;6;
70436;PMS5003;57877;39.750;-104.894;2024-02-04T14:21:14;8;8;
70436;PMS5003;57877;39.750;-104.894;2024-02-04T14:23:39;7;6;
70436;PMS5003;57877;39.750;-104.894;2024-02-04T14:26:05;8;6;
70436;PMS5003;57877;39.750;-104.894;2024-02-04T14:28:30;6;6;
70436;PMS5003;57877;39.750;-104.894;2024-02-04T14:30:55;5;5;
70436;PMS5003;57877;39.750;-104.894;2024-02-04T14:33:20;8;8;
70436;PMS5003;57877;39.750;-104.894;2024-02-04T14:35:45;7;7;
70436;PMS5003;57877;39.750;-104.894;2024-02-04T14:38:10;14;13;
70436;PMS5003;57877;39.750;-104.894;2024-02-04T14:40:35;10;10;
70436;PMS5003;57877;39.750;-104.894;2024-02-04T14:43:01;13;13;
70436;PMS5003;57877;39.750;-104.894;2024-02-04T14:45:26;15;10;
70436;PMS5003;57877;39.750;-104.894;2024-02-04T14:47:51;17;16;
70436;PMS5003;57877;39.750;-104.894;2024-02-04T14:50:16;15;15;
70436;PMS5003;57877;39.750;-104.894;2024-02-04T14:52:41;16;15;
70436;PMS5003;57877;39.750;-104.894;2024-02-04T14:55:06;20;17;
70436;PMS5003;57877;39.750;-104.894;2024-02-04T14:57:31;19;17;
70436;PMS5003;57877;39.750;-104.894;2024-02-04T14:59:56;18;16;
70436;PMS5003;57877;39.750;-104.894;2024-02-04T15:02:22;16;14;
70436;PMS5003;57877;39.750;-104.894;2024-02-04T15:04:47;16;16;
70436;PMS5003;57877;39.750;-104.894;2024-02-04T15:07:12;17;16;
70436;PMS5003;57877;39.750;-104.894;2024-02-04T15:09:37;19;17;
70436;PMS5003;57877;39.750;-104.894;2024-02-04T15:12:02;19;17;
70436;PMS5003;57877;39.750;-104.894;2024-02-04T15:14:28;19;18;
70436;PMS5003;57877;39.750;-104.894;2024-02-04T15:16:53;18;18;
70436;PMS5003;57877;39.750;-104.894;2024-02-04T15:19:18;18;18;
70436;PMS5003;57877;39.750;-104.894;2024-02-04T15:21:43;17;15;
70436;PMS5003;57877;39.750;-104.894;2024-02-04T15:24:08;16;14;
70436;PMS5003;57877;39.750;-104.894;2024-02-04T15:26:33;19;16;
70436;PMS5003;57877;39.750;-104.894;2024-02-04T15:28:58;18;17;
70436;PMS5003;57877;39.750;-104.894;2024-02-04T15:31:23;20;20;
70436;PMS5003;57877;39.750;-104.894;2024-02-04T15:33:49;22;18;
70436;PMS5003;57877;39.750;-104.894;2024-02-04T15:36:13;20;20;
70436;PMS5003;57877;39.750;-104.894;2024-02-04T15:38:39;20;19;
70436;PMS5003;57877;39.750;-104.894;2024-02-04T15:41:04;21;20;
70436;PMS5003;57877;39.750;-104.894;2024-02-04T15:43:29;21;19;